createdAt,value
2023-03-24T00:01:02.687Z,69.72
2023-03-24T00:03:31.416Z,69.93
2023-03-24T00:06:02.337Z,69.86
2023-03-24T00:08:36.537Z,69.79
2023-03-24T00:11:14.244Z,69.83
2023-03-24T00:13:42.677Z,69.93
2023-03-24T00:16:13.175Z,70.04
2023-03-24T00:18:41.200Z,70.17
2023-03-24T00:21:11.392Z,70.29
2023-03-24T00:23:43.755Z,70.38
2023-03-24T00:26:16.900Z,70.30
2023-03-24T00:28:48.109Z,70.44
2023-03-24T00:31:17.577Z,70.50
2023-03-24T00:33:50.833Z,70.58
2023-03-24T00:36:21.242Z,70.57
2023-03-24T00:38:50.177Z,70.63
2023-03-24T00:41:20.294Z,71.03
2023-03-24T00:43:50.294Z,71.10
2023-03-24T00:46:39.023Z,71.10
2023-03-24T00:49:07.952Z,71.05
2023-03-24T00:51:40.011Z,71.38
2023-03-24T00:54:12.618Z,71.28
2023-03-24T00:56:41.429Z,71.49
2023-03-24T00:59:10.443Z,71.53
2023-03-24T01:01:41.357Z,71.68
2023-03-24T01:04:10.377Z,71.57
2023-03-24T01:06:39.470Z,71.79
2023-03-24T01:09:07.760Z,71.37
2023-03-24T01:11:41.378Z,71.69
2023-03-24T01:14:11.533Z,71.75
2023-03-24T01:16:39.826Z,71.95
2023-03-24T01:19:10.552Z,72.13
2023-03-24T01:21:40.059Z,72.30
2023-03-24T01:24:08.353Z,72.49
2023-03-24T01:26:36.259Z,72.34
2023-03-24T01:29:06.440Z,72.55
2023-03-24T01:31:34.604Z,72.44
2023-03-24T01:34:03.236Z,72.49
2023-03-24T01:36:31.095Z,72.48
2023-03-24T01:39:01.210Z,72.65
2023-03-24T01:41:40.938Z,72.81
2023-03-24T01:44:27.474Z,72.86
2023-03-24T01:46:56.935Z,72.92
2023-03-24T01:49:31.778Z,72.93
2023-03-24T01:52:02.350Z,73.06
2023-03-24T01:54:37.328Z,73.23
2023-03-24T01:57:22.883Z,73.32
2023-03-24T01:59:56.110Z,73.22
2023-03-24T02:02:46.077Z,73.27
2023-03-24T02:05:15.692Z,73.42
2023-03-24T02:08:07.312Z,73.58
2023-03-24T02:10:37.459Z,73.38
2023-03-24T02:13:06.502Z,73.34
2023-03-24T02:15:55.688Z,73.43
2023-03-24T02:18:45.082Z,73.49
2023-03-24T02:21:12.938Z,73.47
2023-03-24T02:24:07.490Z,73.79
2023-03-24T02:26:47.441Z,73.81
2023-03-24T02:29:36.932Z,73.93
2023-03-24T02:32:23.089Z,73.95
2023-03-24T02:35:22.759Z,73.85
2023-03-24T02:38:03.360Z,73.87
2023-03-24T02:40:43.866Z,73.97
2023-03-24T02:43:22.505Z,74.14
2023-03-24T02:46:05.617Z,74.01
2023-03-24T02:48:48.843Z,73.78
2023-03-24T02:51:55.558Z,73.97
2023-03-24T02:54:46.519Z,73.74
2023-03-24T02:57:54.450Z,73.85
2023-03-24T03:01:05.412Z,73.89
2023-03-24T03:03:53.266Z,74.04
2023-03-24T03:06:31.221Z,74.20
2023-03-24T03:09:02.880Z,74.32
2023-03-24T03:11:30.750Z,74.39
2023-03-24T03:14:04.534Z,74.62
2023-03-24T03:16:39.445Z,74.64
2023-03-24T03:19:19.549Z,74.87
2023-03-24T03:21:50.578Z,75.00
2023-03-24T03:24:27.251Z,74.98
2023-03-24T03:27:00.330Z,75.32
2023-03-24T03:29:34.716Z,75.34
2023-03-24T03:32:09.521Z,75.24
2023-03-24T03:34:49.105Z,75.14
2023-03-24T03:37:46.958Z,75.10
2023-03-24T03:40:21.345Z,74.98
2023-03-24T03:42:52.608Z,75.24
2023-03-24T03:45:20.601Z,75.09
2023-03-24T03:47:48.953Z,75.33
2023-03-24T03:50:17.027Z,75.13
2023-03-24T03:52:45.594Z,75.10
2023-03-24T03:55:14.601Z,75.44
2023-03-24T03:57:43.063Z,75.51
2023-03-24T04:00:17.151Z,75.66
2023-03-24T04:02:54.612Z,75.38
2023-03-24T04:05:29.191Z,75.45
2023-03-24T04:08:17.039Z,75.35
2023-03-24T04:11:17.562Z,75.28
2023-03-24T04:14:33.376Z,75.38
2023-03-24T04:17:55.699Z,75.53
2023-03-24T04:21:17.392Z,75.55
2023-03-24T04:23:54.350Z,75.60
2023-03-24T04:26:34.344Z,75.80
2023-03-24T04:29:22.407Z,75.92
2023-03-24T04:31:56.277Z,75.78
2023-03-24T04:34:32.984Z,76.08
2023-03-24T04:37:16.226Z,76.06
2023-03-24T04:39:58.828Z,76.16
2023-03-24T04:42:42.096Z,76.75
2023-03-24T04:45:10.446Z,76.44
2023-03-24T04:47:54.669Z,76.49
2023-03-24T04:50:43.199Z,76.24
2023-03-24T04:53:15.313Z,76.48
2023-03-24T04:55:49.616Z,76.18
2023-03-24T04:58:22.853Z,76.22
2023-03-24T05:00:51.625Z,76.29
2023-03-24T05:03:19.620Z,76.65
2023-03-24T05:05:49.890Z,76.92
2023-03-24T05:08:19.040Z,77.09
2023-03-24T05:10:47.435Z,77.10
2023-03-24T05:13:16.030Z,76.79
2023-03-24T05:15:47.585Z,76.76
2023-03-24T05:18:29.305Z,76.47
2023-03-24T05:20:57.785Z,76.81
2023-03-24T05:23:26.354Z,76.66
2023-03-24T05:25:54.263Z,76.79
2023-03-24T05:28:23.329Z,76.92
2023-03-24T05:30:53.469Z,77.07
2023-03-24T05:33:37.653Z,77.09
2023-03-24T05:36:06.037Z,76.98
2023-03-24T05:38:34.364Z,76.82
2023-03-24T05:41:03.356Z,76.89
2023-03-24T05:43:35.420Z,76.83
2023-03-24T05:46:14.195Z,76.56
2023-03-24T05:48:44.264Z,76.57
2023-03-24T05:51:20.566Z,76.62
2023-03-24T05:53:53.581Z,76.58
2023-03-24T05:56:32.815Z,76.55
2023-03-24T05:59:21.342Z,76.42
2023-03-24T06:02:03.124Z,76.22
2023-03-24T06:04:53.144Z,76.04
2023-03-24T06:07:26.669Z,76.09
2023-03-24T06:09:58.276Z,76.07
2023-03-24T06:12:27.772Z,76.17
2023-03-24T06:15:01.924Z,76.34
2023-03-24T06:17:30.628Z,76.19
2023-03-24T06:20:04.144Z,76.14
2023-03-24T06:22:47.516Z,76.06
2023-03-24T06:25:20.745Z,76.09
2023-03-24T06:28:12.525Z,75.81
2023-03-24T06:30:44.174Z,75.73
2023-03-24T06:33:13.863Z,75.50
2023-03-24T06:35:43.526Z,75.45
2023-03-24T06:38:15.429Z,75.26
2023-03-24T06:40:43.927Z,75.09
2023-03-24T06:43:11.766Z,75.00
2023-03-24T06:45:40.651Z,74.93
2023-03-24T06:48:10.926Z,74.81
2023-03-24T06:50:41.336Z,74.68
2023-03-24T06:53:10.509Z,74.63
2023-03-24T06:55:39.024Z,74.45
2023-03-24T06:58:08.206Z,74.30
2023-03-24T07:00:47.206Z,74.17
2023-03-24T07:03:36.697Z,74.10
2023-03-24T07:06:26.321Z,74.12
2023-03-24T07:08:57.423Z,74.11
2023-03-24T07:11:27.588Z,74.18
2023-03-24T07:13:58.335Z,74.13
2023-03-24T07:16:27.064Z,74.32
2023-03-24T07:19:02.815Z,74.41
2023-03-24T07:21:31.773Z,74.51
2023-03-24T07:24:02.558Z,74.88
2023-03-24T07:26:46.288Z,74.70
2023-03-24T07:29:20.649Z,74.70
2023-03-24T07:32:07.905Z,74.95
2023-03-24T07:34:37.133Z,75.26
2023-03-24T07:37:05.154Z,75.30
2023-03-24T07:39:33.192Z,75.40
2023-03-24T07:42:01.091Z,75.74
2023-03-24T07:44:37.520Z,76.00
2023-03-24T07:47:06.810Z,76.42
2023-03-24T07:49:34.784Z,76.77
2023-03-24T07:52:06.632Z,77.17
2023-03-24T07:54:39.699Z,77.32
2023-03-24T07:57:10.400Z,77.62
2023-03-24T07:59:39.173Z,78.48
2023-03-24T08:02:21.174Z,79.12
2023-03-24T08:04:56.772Z,78.66
2023-03-24T08:07:56.050Z,78.58
2023-03-24T08:10:29.725Z,78.55
2023-03-24T08:12:58.320Z,79.20
2023-03-24T08:15:27.376Z,79.47
2023-03-24T08:17:56.733Z,79.83
2023-03-24T08:20:27.341Z,79.73
2023-03-24T08:22:55.605Z,79.93
2023-03-24T08:25:27.357Z,79.83
2023-03-24T08:27:55.334Z,80.06
2023-03-24T08:30:24.967Z,80.39
2023-03-24T08:32:55.654Z,80.25
2023-03-24T08:35:27.673Z,79.99
2023-03-24T08:37:55.544Z,80.08
2023-03-24T08:40:24.356Z,79.79
2023-03-24T08:42:55.762Z,79.68
2023-03-24T08:45:27.506Z,79.54
2023-03-24T08:47:56.083Z,79.51
2023-03-24T08:50:28.190Z,79.58
2023-03-24T08:52:57.276Z,79.46
2023-03-24T08:55:25.531Z,79.46
2023-03-24T08:57:53.508Z,79.28
2023-03-24T09:00:22.714Z,79.16
2023-03-24T09:02:52.602Z,78.90
2023-03-24T09:05:29.841Z,78.52
2023-03-24T09:08:09.244Z,78.33
2023-03-24T09:10:37.045Z,77.92
2023-03-24T09:13:05.267Z,77.32
2023-03-24T09:15:33.804Z,75.93
2023-03-24T09:18:02.856Z,74.56
2023-03-24T09:20:31.008Z,73.13
2023-03-24T09:22:58.938Z,72.43
2023-03-24T09:25:27.048Z,71.63
2023-03-24T09:27:56.492Z,70.50
2023-03-24T09:30:24.467Z,69.97
2023-03-24T09:32:52.287Z,69.09
2023-03-24T09:35:20.095Z,68.35
2023-03-24T09:37:47.900Z,66.49
2023-03-24T09:40:22.383Z,65.00
2023-03-24T09:43:25.487Z,64.11
2023-03-24T09:45:59.085Z,64.08
2023-03-24T09:48:39.526Z,64.04
2023-03-24T09:51:25.716Z,63.97
2023-03-24T09:54:11.889Z,63.52
2023-03-24T09:56:44.005Z,63.18
2023-03-24T09:59:18.312Z,63.10
2023-03-24T10:01:46.945Z,62.74
2023-03-24T10:04:18.396Z,62.77
2023-03-24T10:06:52.883Z,63.03
2023-03-24T10:09:23.952Z,63.26
2023-03-24T10:12:06.916Z,63.19
2023-03-24T10:15:11.872Z,63.39
2023-03-24T10:18:01.650Z,63.02
2023-03-24T10:20:53.720Z,62.89
2023-03-24T10:23:24.381Z,62.95
2023-03-24T10:26:41.297Z,62.99
2023-03-24T10:29:32.843Z,63.09
2023-03-24T10:32:05.182Z,63.04
2023-03-24T10:34:34.430Z,62.90
2023-03-24T10:37:04.250Z,63.07
2023-03-24T10:42:07.153Z,63.13
2023-03-24T10:44:35.084Z,63.14
2023-03-24T10:47:04.919Z,63.32
2023-03-24T10:49:33.746Z,63.49
2023-03-24T10:52:08.683Z,63.47
2023-03-24T10:54:37.109Z,63.62
2023-03-24T10:57:15.763Z,63.62
2023-03-24T10:59:54.097Z,63.72
2023-03-24T11:02:26.876Z,63.76
2023-03-24T11:04:58.870Z,63.85
2023-03-24T11:07:38.846Z,64.07
2023-03-24T11:10:09.559Z,64.29
2023-03-24T11:12:39.123Z,64.34
2023-03-24T11:15:21.209Z,64.55
2023-03-24T11:17:59.119Z,64.58
2023-03-24T11:20:38.895Z,64.60
2023-03-24T11:24:11.332Z,64.55
2023-03-24T11:26:41.335Z,64.56
2023-03-24T11:29:18.876Z,64.38
2023-03-24T11:31:56.940Z,64.25
2023-03-24T11:34:27.238Z,64.20
2023-03-24T11:37:04.046Z,63.92
2023-03-24T11:39:36.787Z,63.51
2023-03-24T11:42:27.664Z,63.19
2023-03-24T11:44:56.457Z,63.17
2023-03-24T11:47:33.396Z,62.98
2023-03-24T11:50:19.028Z,62.73
2023-03-24T11:53:15.613Z,62.57
2023-03-24T11:55:50.480Z,62.47
2023-03-24T11:58:35.519Z,62.07
2023-03-24T12:01:11.983Z,61.87
2023-03-24T12:03:54.164Z,61.67
2023-03-24T12:06:40.819Z,61.32
2023-03-24T12:09:20.477Z,60.95
2023-03-24T12:12:09.716Z,60.93
2023-03-24T12:15:26.779Z,60.83
2023-03-24T12:17:58.468Z,60.60
2023-03-24T12:20:26.222Z,60.62
2023-03-24T12:23:26.610Z,60.24
2023-03-24T12:26:16.825Z,59.68
2023-03-24T12:29:27.819Z,59.30
2023-03-24T12:32:37.521Z,59.34
2023-03-24T12:35:12.550Z,58.93
2023-03-24T12:37:43.377Z,58.22
2023-03-24T12:40:11.220Z,57.43
2023-03-24T12:42:44.777Z,56.87
2023-03-24T12:45:42.413Z,55.49
2023-03-24T12:48:25.651Z,54.87
2023-03-24T12:51:05.486Z,54.77
2023-03-24T12:54:05.924Z,54.77
2023-03-24T12:56:33.619Z,54.47
2023-03-24T12:59:15.639Z,53.02
2023-03-24T13:01:52.833Z,52.93
2023-03-24T13:04:29.103Z,52.58
2023-03-24T13:07:25.738Z,51.12
2023-03-24T13:10:07.839Z,50.13
2023-03-24T13:12:53.181Z,50.37
2023-03-24T13:15:27.374Z,50.42
2023-03-24T13:18:16.865Z,49.90
2023-03-24T13:20:49.695Z,50.02
2023-03-24T13:27:23.347Z,49.69
2023-03-24T13:30:14.713Z,49.49
2023-03-24T13:32:50.461Z,49.82
2023-03-24T13:35:53.405Z,50.02
2023-03-24T13:38:46.153Z,50.44
2023-03-24T13:41:24.012Z,50.91
2023-03-24T13:43:59.239Z,51.02
2023-03-24T13:46:28.770Z,51.01
2023-03-24T13:48:58.950Z,50.85
2023-03-24T13:51:35.613Z,50.90
2023-03-24T13:54:24.027Z,50.95
2023-03-24T13:57:01.070Z,50.78
2023-03-24T13:59:41.688Z,50.56
2023-03-24T14:02:22.894Z,50.25
2023-03-24T14:05:03.250Z,50.43
2023-03-24T14:07:39.385Z,50.86
2023-03-24T14:10:23.252Z,50.92
2023-03-24T14:13:01.903Z,51.18
2023-03-24T14:15:29.816Z,51.14
2023-03-24T14:18:14.538Z,50.82
2023-03-24T14:20:59.681Z,50.55
2023-03-24T14:27:23.629Z,49.38
2023-03-24T14:29:52.327Z,49.26
2023-03-24T14:32:23.152Z,49.24
2023-03-24T14:35:00.331Z,49.12
2023-03-24T14:37:28.958Z,49.14
2023-03-24T14:39:58.350Z,49.02
2023-03-24T14:42:36.154Z,48.82
2023-03-24T14:45:31.293Z,48.86
2023-03-24T14:48:03.255Z,48.83
2023-03-24T14:50:32.470Z,48.90
2023-03-24T14:53:03.849Z,49.24
2023-03-24T14:55:33.386Z,49.47
2023-03-24T14:58:09.984Z,49.38
2023-03-24T15:00:51.802Z,49.59
2023-03-24T15:03:59.300Z,49.56
2023-03-24T15:06:27.475Z,49.51
2023-03-24T15:09:07.479Z,49.56
2023-03-24T15:11:39.218Z,49.54
2023-03-24T15:14:17.255Z,49.49
2023-03-24T15:16:53.488Z,49.52
2023-03-24T15:19:24.770Z,49.69
2023-03-24T15:22:07.255Z,49.78
2023-03-24T15:24:37.190Z,50.10
2023-03-24T15:27:07.997Z,50.33
2023-03-24T15:29:41.758Z,50.62
2023-03-24T15:32:18.812Z,50.73
2023-03-24T15:34:50.685Z,50.87
2023-03-24T15:37:40.019Z,50.89
2023-03-24T15:40:26.940Z,51.12
2023-03-24T15:42:57.112Z,51.28
2023-03-24T15:45:30.504Z,51.45
2023-03-24T15:48:05.312Z,51.66
2023-03-24T15:50:38.667Z,51.78
2023-03-24T15:53:15.822Z,52.19
2023-03-24T15:55:44.044Z,52.38
2023-03-24T15:58:28.574Z,52.82
2023-03-24T16:00:59.933Z,53.07
2023-03-24T16:03:30.973Z,53.36
2023-03-24T16:05:58.880Z,53.51
2023-03-24T16:08:39.077Z,53.58
2023-03-24T16:11:11.955Z,53.77
2023-03-24T16:13:42.953Z,53.82
2023-03-24T16:16:13.794Z,54.12
2023-03-24T16:18:47.089Z,54.38
2023-03-24T16:21:16.970Z,54.47
2023-03-24T16:23:45.911Z,54.66
2023-03-24T16:26:25.491Z,55.00
2023-03-24T16:28:54.450Z,55.35
2023-03-24T16:31:22.905Z,55.87
2023-03-24T16:33:55.991Z,56.17
2023-03-24T16:36:29.261Z,56.96
2023-03-24T16:38:59.783Z,57.74
2023-03-24T16:41:28.142Z,58.27
2023-03-24T16:43:55.850Z,58.72
2023-03-24T16:46:26.478Z,59.16
2023-03-24T16:48:55.716Z,59.59
2023-03-24T16:51:23.616Z,60.44
2023-03-24T16:53:51.347Z,60.87
2023-03-24T16:56:21.846Z,61.55
2023-03-24T16:58:53.197Z,62.13
2023-03-24T17:01:35.940Z,62.35
2023-03-24T17:04:13.949Z,63.13
2023-03-24T17:06:47.041Z,63.97
2023-03-24T17:09:15.436Z,64.69
2023-03-24T17:11:50.352Z,65.36
2023-03-24T17:14:18.102Z,66.35
2023-03-24T17:16:49.662Z,67.25
2023-03-24T17:19:20.909Z,68.06
2023-03-24T17:22:02.239Z,68.46
2023-03-24T17:24:35.737Z,68.61
2023-03-24T17:27:10.064Z,69.55
2023-03-24T17:29:37.747Z,70.44
2023-03-24T17:32:05.727Z,72.11
2023-03-24T17:34:33.937Z,72.63
2023-03-24T17:37:01.679Z,73.43
2023-03-24T17:39:29.451Z,73.10
2023-03-24T17:42:01.120Z,73.18
2023-03-24T17:44:28.854Z,73.90
2023-03-24T17:46:56.745Z,74.27
2023-03-24T17:49:24.686Z,74.61
2023-03-24T17:51:52.416Z,75.52
2023-03-24T17:54:21.162Z,76.34
2023-03-24T17:56:48.928Z,76.59
2023-03-24T17:59:17.699Z,77.30
2023-03-24T18:01:47.274Z,77.67
2023-03-24T18:04:15.622Z,78.38
2023-03-24T18:06:43.903Z,78.82
2023-03-24T18:09:11.595Z,79.55
2023-03-24T18:11:39.282Z,79.81
2023-03-24T18:14:09.170Z,80.26
2023-03-24T18:16:39.233Z,80.68
2023-03-24T18:19:07.279Z,81.24
2023-03-24T18:21:35.178Z,81.26
2023-03-24T18:24:04.574Z,81.66
2023-03-24T18:26:33.617Z,81.74
2023-03-24T18:29:01.449Z,81.35
2023-03-24T18:31:32.365Z,81.74
2023-03-24T18:34:00.649Z,82.54
2023-03-24T18:36:29.161Z,83.06
2023-03-24T18:38:59.234Z,82.99
2023-03-24T18:41:28.433Z,83.08
2023-03-24T18:43:58.139Z,83.52
2023-03-24T18:46:27.218Z,83.35
2023-03-24T18:48:55.318Z,83.29
2023-03-24T18:51:25.380Z,83.56
2023-03-24T18:53:53.523Z,83.49
2023-03-24T18:56:23.013Z,83.63
2023-03-24T18:58:52.178Z,83.92
2023-03-24T19:01:25.243Z,83.57
2023-03-24T19:03:54.031Z,83.66
2023-03-24T19:06:22.246Z,83.59
2023-03-24T19:08:51.867Z,83.71
2023-03-24T19:11:20.050Z,83.74
2023-03-24T19:13:50.388Z,83.69
2023-03-24T19:16:19.647Z,83.72
2023-03-24T19:18:48.659Z,83.71
2023-03-24T19:21:17.303Z,83.89
2023-03-24T19:23:46.939Z,83.99
2023-03-24T19:26:16.565Z,84.01
2023-03-24T19:28:44.311Z,84.23
2023-03-24T19:31:15.182Z,84.19
2023-03-24T19:33:43.635Z,84.21
2023-03-24T19:36:11.453Z,84.50
2023-03-24T19:38:39.950Z,84.42
2023-03-24T19:41:10.254Z,84.13
2023-03-24T19:43:38.702Z,84.17
2023-03-24T19:46:08.181Z,84.23
2023-03-24T19:48:36.344Z,84.20
2023-03-24T19:51:04.338Z,84.44
2023-03-24T19:53:32.290Z,84.41
2023-03-24T19:56:01.138Z,84.66
2023-03-24T19:58:29.132Z,84.98
2023-03-24T20:00:57.203Z,84.77
2023-03-24T20:03:25.116Z,84.28
2023-03-24T20:05:53.124Z,84.39
2023-03-24T20:08:21.592Z,84.38
2023-03-24T20:10:49.301Z,84.48
2023-03-24T20:13:16.993Z,84.73
2023-03-24T20:15:46.552Z,84.98
2023-03-24T20:18:14.383Z,84.67
2023-03-24T20:20:42.449Z,84.14
2023-03-24T20:23:10.553Z,84.49
2023-03-24T20:25:42.012Z,84.52
2023-03-24T20:28:12.116Z,84.29
2023-03-24T20:30:40.115Z,84.55
2023-03-24T20:33:08.098Z,85.05
2023-03-24T20:35:36.770Z,85.20
2023-03-24T20:38:04.700Z,84.78
2023-03-24T20:40:32.437Z,84.82
2023-03-24T20:43:00.166Z,85.11
2023-03-24T20:45:28.031Z,85.21
2023-03-24T20:47:56.059Z,85.42
2023-03-24T20:50:24.852Z,85.36
2023-03-24T20:52:52.563Z,85.09
2023-03-24T20:55:20.348Z,85.06
2023-03-24T20:57:48.293Z,85.05
2023-03-24T21:00:16.524Z,84.84
2023-03-24T21:02:45.089Z,84.72
2023-03-24T21:05:12.985Z,84.54
2023-03-24T21:07:43.808Z,84.36
2023-03-24T21:10:12.051Z,84.18
2023-03-24T21:12:52.869Z,83.98
2023-03-24T21:15:24.873Z,83.80
2023-03-24T21:17:54.513Z,83.66
2023-03-24T21:20:22.597Z,83.65
2023-03-24T21:26:18.925Z,83.60
2023-03-24T21:28:46.734Z,83.32
2023-03-24T21:31:24.030Z,83.10
2023-03-24T21:33:53.188Z,82.72
2023-03-24T21:36:23.240Z,82.31
2023-03-24T21:38:51.728Z,82.23
2023-03-24T21:41:20.645Z,82.59
2023-03-24T21:43:51.051Z,82.74
2023-03-24T21:46:22.232Z,82.59
2023-03-24T21:48:52.085Z,83.03
2023-03-24T21:51:23.992Z,83.18
2023-03-24T21:53:55.738Z,83.28
2023-03-24T21:56:23.553Z,83.54
2023-03-24T21:58:54.839Z,84.05
2023-03-24T22:01:23.400Z,84.41
2023-03-24T22:03:54.120Z,84.57
2023-03-24T22:06:22.831Z,84.75
2023-03-24T22:08:53.172Z,84.99
2023-03-24T22:11:21.107Z,85.29
2023-03-24T22:13:48.774Z,85.42
2023-03-24T22:16:16.514Z,85.53
2023-03-24T22:18:44.346Z,85.55
2023-03-24T22:21:12.494Z,85.65
2023-03-24T22:27:11.718Z,85.59
2023-03-24T22:29:40.725Z,85.56
2023-03-24T22:32:08.547Z,85.68
2023-03-24T22:34:36.389Z,85.92
2023-03-24T22:37:04.140Z,86.15
2023-03-24T22:39:34.051Z,86.41
2023-03-24T22:42:01.769Z,86.51
2023-03-24T22:44:33.801Z,86.39
2023-03-24T22:47:04.579Z,86.41
2023-03-24T22:49:33.254Z,86.62
2023-03-24T22:52:01.053Z,86.82
2023-03-24T22:54:29.638Z,86.85
2023-03-24T22:56:57.497Z,87.00
2023-03-24T22:59:25.751Z,87.10
2023-03-24T23:02:02.390Z,87.05
2023-03-24T23:04:37.097Z,87.11
2023-03-24T23:07:06.611Z,87.13
2023-03-24T23:09:34.273Z,87.13
2023-03-24T23:12:02.660Z,86.90
2023-03-24T23:14:31.417Z,87.00
2023-03-24T23:16:59.297Z,86.96
2023-03-24T23:19:28.292Z,87.00
2023-03-24T23:21:56.475Z,87.09
2023-03-24T23:24:24.342Z,87.14
2023-03-24T23:26:52.205Z,87.20
2023-03-24T23:29:19.966Z,87.15
2023-03-24T23:31:47.809Z,87.24
2023-03-24T23:34:15.581Z,87.22
2023-03-24T23:36:45.066Z,87.38
2023-03-24T23:39:12.870Z,87.71
2023-03-24T23:41:40.928Z,87.93
2023-03-24T23:44:09.957Z,88.10
2023-03-24T23:46:39.826Z,88.20
2023-03-24T23:49:09.454Z,88.23
2023-03-24T23:51:37.187Z,88.37
2023-03-24T23:54:05.090Z,88.41
2023-03-24T23:56:37.102Z,88.47
2023-03-24T23:59:06.769Z,88.55
